sensor_id;sensor_type;location;lat;lon;timestamp;temperature;humidity
52787;DHT22;38661;53.152;5.846;2023-04-25T00:01:17;6.90;83.00
52787;DHT22;38661;53.152;5.846;2023-04-25T00:03:43;7.00;83.20
52787;DHT22;38661;53.152;5.846;2023-04-25T00:06:08;7.00;83.40
52787;DHT22;38661;53.152;5.846;2023-04-25T00:08:34;7.00;83.70
52787;DHT22;38661;53.152;5.846;2023-04-25T00:11:00;7.00;83.70
52787;DHT22;38661;53.152;5.846;2023-04-25T00:13:26;7.00;83.80
52787;DHT22;38661;53.152;5.846;2023-04-25T00:15:52;7.00;83.90
52787;DHT22;38661;53.152;5.846;2023-04-25T00:18:21;7.00;84.10
52787;DHT22;38661;53.152;5.846;2023-04-25T00:20:48;7.00;84.30
52787;DHT22;38661;53.152;5.846;2023-04-25T00:23:14;7.10;84.40
52787;DHT22;38661;53.152;5.846;2023-04-25T00:25:47;7.10;84.40
52787;DHT22;38661;53.152;5.846;2023-04-25T00:28:14;7.10;84.10
52787;DHT22;38661;53.152;5.846;2023-04-25T00:30:40;7.00;83.90
52787;DHT22;38661;53.152;5.846;2023-04-25T00:33:06;7.00;83.60
52787;DHT22;38661;53.152;5.846;2023-04-25T00:35:32;7.00;83.10
52787;DHT22;38661;53.152;5.846;2023-04-25T00:37:58;7.10;82.10
52787;DHT22;38661;53.152;5.846;2023-04-25T00:40:24;7.10;81.40
52787;DHT22;38661;53.152;5.846;2023-04-25T00:42:51;7.10;80.90
52787;DHT22;38661;53.152;5.846;2023-04-25T00:45:18;7.00;80.60
52787;DHT22;38661;53.152;5.846;2023-04-25T00:47:44;7.00;80.40
52787;DHT22;38661;53.152;5.846;2023-04-25T00:50:10;6.90;80.20
52787;DHT22;38661;53.152;5.846;2023-04-25T00:52:43;7.00;79.60
52787;DHT22;38661;53.152;5.846;2023-04-25T00:55:09;7.00;79.10
52787;DHT22;38661;53.152;5.846;2023-04-25T00:57:36;7.00;78.90
52787;DHT22;38661;53.152;5.846;2023-04-25T01:00:04;6.90;78.90
52787;DHT22;38661;53.152;5.846;2023-04-25T01:02:32;6.90;79.20
52787;DHT22;38661;53.152;5.846;2023-04-25T01:04:58;6.80;79.20
52787;DHT22;38661;53.152;5.846;2023-04-25T01:07:23;6.90;79.30
52787;DHT22;38661;53.152;5.846;2023-04-25T01:09:51;6.90;79.10
52787;DHT22;38661;53.152;5.846;2023-04-25T01:12:17;6.90;78.90
52787;DHT22;38661;53.152;5.846;2023-04-25T01:14:43;6.90;78.90
52787;DHT22;38661;53.152;5.846;2023-04-25T01:17:09;6.90;79.20
52787;DHT22;38661;53.152;5.846;2023-04-25T01:19:35;7.00;79.30
52787;DHT22;38661;53.152;5.846;2023-04-25T01:22:01;6.90;79.80
52787;DHT22;38661;53.152;5.846;2023-04-25T01:24:27;6.90;80.60
52787;DHT22;38661;53.152;5.846;2023-04-25T01:26:54;7.00;81.10
52787;DHT22;38661;53.152;5.846;2023-04-25T01:29:22;7.00;81.70
52787;DHT22;38661;53.152;5.846;2023-04-25T01:31:48;7.00;81.40
52787;DHT22;38661;53.152;5.846;2023-04-25T01:34:15;6.80;81.40
52787;DHT22;38661;53.152;5.846;2023-04-25T01:36:41;6.70;81.20
52787;DHT22;38661;53.152;5.846;2023-04-25T01:39:07;6.70;81.40
52787;DHT22;38661;53.152;5.846;2023-04-25T01:41:33;6.60;81.30
52787;DHT22;38661;53.152;5.846;2023-04-25T01:44:02;6.60;81.10
52787;DHT22;38661;53.152;5.846;2023-04-25T01:46:29;6.50;80.90
52787;DHT22;38661;53.152;5.846;2023-04-25T01:48:54;6.50;80.70
52787;DHT22;38661;53.152;5.846;2023-04-25T01:51:20;6.40;80.50
52787;DHT22;38661;53.152;5.846;2023-04-25T01:53:46;6.30;80.50
52787;DHT22;38661;53.152;5.846;2023-04-25T01:56:12;6.40;80.20
52787;DHT22;38661;53.152;5.846;2023-04-25T01:58:37;6.30;79.50
52787;DHT22;38661;53.152;5.846;2023-04-25T02:01:03;6.30;79.40
52787;DHT22;38661;53.152;5.846;2023-04-25T02:03:30;6.40;79.50
52787;DHT22;38661;53.152;5.846;2023-04-25T02:05:56;6.30;79.80
52787;DHT22;38661;53.152;5.846;2023-04-25T02:08:22;6.40;80.20
52787;DHT22;38661;53.152;5.846;2023-04-25T02:10:48;6.40;80.00
52787;DHT22;38661;53.152;5.846;2023-04-25T02:13:13;6.50;79.70
52787;DHT22;38661;53.152;5.846;2023-04-25T02:15:39;6.40;79.50
52787;DHT22;38661;53.152;5.846;2023-04-25T02:18:06;6.30;79.30
52787;DHT22;38661;53.152;5.846;2023-04-25T02:20:32;6.40;77.80
52787;DHT22;38661;53.152;5.846;2023-04-25T02:22:58;6.30;77.60
52787;DHT22;38661;53.152;5.846;2023-04-25T02:25:24;6.30;76.70
52787;DHT22;38661;53.152;5.846;2023-04-25T02:27:50;6.30;76.30
52787;DHT22;38661;53.152;5.846;2023-04-25T02:30:17;6.30;75.60
52787;DHT22;38661;53.152;5.846;2023-04-25T02:32:42;6.30;76.00
52787;DHT22;38661;53.152;5.846;2023-04-25T02:35:09;6.30;76.30
52787;DHT22;38661;53.152;5.846;2023-04-25T02:37:36;6.30;76.70
52787;DHT22;38661;53.152;5.846;2023-04-25T02:40:02;6.20;77.30
52787;DHT22;38661;53.152;5.846;2023-04-25T02:42:31;6.20;77.90
52787;DHT22;38661;53.152;5.846;2023-04-25T02:44:56;6.10;78.60
52787;DHT22;38661;53.152;5.846;2023-04-25T02:47:22;6.10;79.00
52787;DHT22;38661;53.152;5.846;2023-04-25T02:49:48;6.10;79.60
52787;DHT22;38661;53.152;5.846;2023-04-25T02:52:13;6.20;80.20
52787;DHT22;38661;53.152;5.846;2023-04-25T02:54:40;6.10;80.00
52787;DHT22;38661;53.152;5.846;2023-04-25T02:57:06;6.10;80.30
52787;DHT22;38661;53.152;5.846;2023-04-25T02:59:32;6.00;80.30
52787;DHT22;38661;53.152;5.846;2023-04-25T03:01:58;6.00;80.50
52787;DHT22;38661;53.152;5.846;2023-04-25T03:04:24;6.00;80.90
52787;DHT22;38661;53.152;5.846;2023-04-25T03:06:50;6.00;80.90
52787;DHT22;38661;53.152;5.846;2023-04-25T03:09:16;6.10;80.90
52787;DHT22;38661;53.152;5.846;2023-04-25T03:11:43;6.10;81.30
52787;DHT22;38661;53.152;5.846;2023-04-25T03:14:09;6.10;81.20
52787;DHT22;38661;53.152;5.846;2023-04-25T03:16:35;6.20;81.30
52787;DHT22;38661;53.152;5.846;2023-04-25T03:19:01;6.20;81.50
52787;DHT22;38661;53.152;5.846;2023-04-25T03:21:27;6.20;81.40
52787;DHT22;38661;53.152;5.846;2023-04-25T03:23:52;6.20;81.70
52787;DHT22;38661;53.152;5.846;2023-04-25T03:26:18;6.20;81.80
52787;DHT22;38661;53.152;5.846;2023-04-25T03:28:44;6.10;81.90
52787;DHT22;38661;53.152;5.846;2023-04-25T03:31:09;6.10;82.30
52787;DHT22;38661;53.152;5.846;2023-04-25T03:33:35;6.20;81.60
52787;DHT22;38661;53.152;5.846;2023-04-25T03:36:01;6.20;81.20
52787;DHT22;38661;53.152;5.846;2023-04-25T03:38:27;6.20;80.20
52787;DHT22;38661;53.152;5.846;2023-04-25T03:40:54;6.10;79.80
52787;DHT22;38661;53.152;5.846;2023-04-25T03:43:19;6.10;79.30
52787;DHT22;38661;53.152;5.846;2023-04-25T03:45:45;6.10;78.50
52787;DHT22;38661;53.152;5.846;2023-04-25T03:48:11;6.20;77.80
52787;DHT22;38661;53.152;5.846;2023-04-25T03:50:37;6.10;78.00
52787;DHT22;38661;53.152;5.846;2023-04-25T03:53:02;6.10;78.00
52787;DHT22;38661;53.152;5.846;2023-04-25T03:55:28;6.20;78.00
52787;DHT22;38661;53.152;5.846;2023-04-25T03:57:54;6.10;77.90
52787;DHT22;38661;53.152;5.846;2023-04-25T04:00:20;6.20;77.80
52787;DHT22;38661;53.152;5.846;2023-04-25T04:02:45;6.20;77.50
52787;DHT22;38661;53.152;5.846;2023-04-25T04:05:11;6.20;77.60
52787;DHT22;38661;53.152;5.846;2023-04-25T04:07:37;6.10;77.50
52787;DHT22;38661;53.152;5.846;2023-04-25T04:10:07;6.10;77.60
52787;DHT22;38661;53.152;5.846;2023-04-25T04:12:33;6.10;77.50
52787;DHT22;38661;53.152;5.846;2023-04-25T04:14:59;6.00;77.20
52787;DHT22;38661;53.152;5.846;2023-04-25T04:17:24;6.00;77.30
52787;DHT22;38661;53.152;5.846;2023-04-25T04:19:50;5.90;77.50
52787;DHT22;38661;53.152;5.846;2023-04-25T04:22:16;5.90;77.60
52787;DHT22;38661;53.152;5.846;2023-04-25T04:24:42;5.90;77.30
52787;DHT22;38661;53.152;5.846;2023-04-25T04:27:11;5.90;77.00
52787;DHT22;38661;53.152;5.846;2023-04-25T04:29:38;6.00;76.80
52787;DHT22;38661;53.152;5.846;2023-04-25T04:32:04;6.10;76.80
52787;DHT22;38661;53.152;5.846;2023-04-25T04:34:30;6.10;76.90
52787;DHT22;38661;53.152;5.846;2023-04-25T04:36:56;6.10;77.10
52787;DHT22;38661;53.152;5.846;2023-04-25T04:39:22;6.10;76.90
52787;DHT22;38661;53.152;5.846;2023-04-25T04:41:48;6.10;76.30
52787;DHT22;38661;53.152;5.846;2023-04-25T04:44:14;6.30;75.60
52787;DHT22;38661;53.152;5.846;2023-04-25T04:46:40;6.20;75.90
52787;DHT22;38661;53.152;5.846;2023-04-25T04:49:10;6.20;76.00
52787;DHT22;38661;53.152;5.846;2023-04-25T04:51:37;6.30;76.10
52787;DHT22;38661;53.152;5.846;2023-04-25T04:54:03;6.30;76.40
52787;DHT22;38661;53.152;5.846;2023-04-25T04:56:29;6.30;76.80
52787;DHT22;38661;53.152;5.846;2023-04-25T04:58:59;6.30;77.30
52787;DHT22;38661;53.152;5.846;2023-04-25T05:01:26;6.30;77.10
52787;DHT22;38661;53.152;5.846;2023-04-25T05:03:52;6.20;77.30
52787;DHT22;38661;53.152;5.846;2023-04-25T05:06:19;6.20;78.00
52787;DHT22;38661;53.152;5.846;2023-04-25T05:08:44;6.10;78.00
52787;DHT22;38661;53.152;5.846;2023-04-25T05:11:10;6.10;78.40
52787;DHT22;38661;53.152;5.846;2023-04-25T05:13:36;6.20;78.40
52787;DHT22;38661;53.152;5.846;2023-04-25T05:16:02;6.10;78.20
52787;DHT22;38661;53.152;5.846;2023-04-25T05:18:28;6.10;78.20
52787;DHT22;38661;53.152;5.846;2023-04-25T05:20:55;6.10;78.40
52787;DHT22;38661;53.152;5.846;2023-04-25T05:23:21;6.10;78.40
52787;DHT22;38661;53.152;5.846;2023-04-25T05:25:46;6.20;79.00
52787;DHT22;38661;53.152;5.846;2023-04-25T05:28:12;6.10;79.10
52787;DHT22;38661;53.152;5.846;2023-04-25T05:30:39;6.10;79.10
52787;DHT22;38661;53.152;5.846;2023-04-25T05:33:04;6.10;79.10
52787;DHT22;38661;53.152;5.846;2023-04-25T05:35:30;6.10;79.50
52787;DHT22;38661;53.152;5.846;2023-04-25T05:37:56;6.10;79.50
52787;DHT22;38661;53.152;5.846;2023-04-25T05:40:22;6.10;79.70
52787;DHT22;38661;53.152;5.846;2023-04-25T05:42:47;6.20;79.80
52787;DHT22;38661;53.152;5.846;2023-04-25T05:45:13;6.30;79.80
52787;DHT22;38661;53.152;5.846;2023-04-25T05:47:39;6.30;79.90
52787;DHT22;38661;53.152;5.846;2023-04-25T05:50:05;6.30;80.10
52787;DHT22;38661;53.152;5.846;2023-04-25T05:52:31;6.30;80.00
52787;DHT22;38661;53.152;5.846;2023-04-25T05:54:57;6.30;79.90
52787;DHT22;38661;53.152;5.846;2023-04-25T05:57:26;6.40;79.80
52787;DHT22;38661;53.152;5.846;2023-04-25T05:59:53;6.40;79.70
52787;DHT22;38661;53.152;5.846;2023-04-25T06:02:20;6.40;79.60
52787;DHT22;38661;53.152;5.846;2023-04-25T06:04:46;6.40;79.10
52787;DHT22;38661;53.152;5.846;2023-04-25T06:07:12;6.40;79.00
52787;DHT22;38661;53.152;5.846;2023-04-25T06:09:38;6.30;78.90
52787;DHT22;38661;53.152;5.846;2023-04-25T06:12:07;6.30;79.20
52787;DHT22;38661;53.152;5.846;2023-04-25T06:14:33;6.30;79.00
52787;DHT22;38661;53.152;5.846;2023-04-25T06:16:59;6.20;78.70
52787;DHT22;38661;53.152;5.846;2023-04-25T06:19:32;6.20;78.30
52787;DHT22;38661;53.152;5.846;2023-04-25T06:21:58;6.10;78.20
52787;DHT22;38661;53.152;5.846;2023-04-25T06:24:24;6.10;78.30
52787;DHT22;38661;53.152;5.846;2023-04-25T06:26:49;6.10;78.60
52787;DHT22;38661;53.152;5.846;2023-04-25T06:29:15;6.10;78.90
52787;DHT22;38661;53.152;5.846;2023-04-25T06:31:41;6.20;79.00
52787;DHT22;38661;53.152;5.846;2023-04-25T06:34:06;6.20;79.20
52787;DHT22;38661;53.152;5.846;2023-04-25T06:36:32;6.40;79.30
52787;DHT22;38661;53.152;5.846;2023-04-25T06:38:58;6.50;79.30
52787;DHT22;38661;53.152;5.846;2023-04-25T06:41:23;6.60;79.30
52787;DHT22;38661;53.152;5.846;2023-04-25T06:43:49;6.80;79.10
52787;DHT22;38661;53.152;5.846;2023-04-25T06:46:15;6.80;78.80
52787;DHT22;38661;53.152;5.846;2023-04-25T06:48:40;7.00;78.90
52787;DHT22;38661;53.152;5.846;2023-04-25T06:51:06;7.20;78.70
52787;DHT22;38661;53.152;5.846;2023-04-25T06:53:32;7.30;79.30
52787;DHT22;38661;53.152;5.846;2023-04-25T06:55:58;7.20;79.90
52787;DHT22;38661;53.152;5.846;2023-04-25T06:58:23;7.10;80.80
52787;DHT22;38661;53.152;5.846;2023-04-25T07:00:49;6.90;81.60
52787;DHT22;38661;53.152;5.846;2023-04-25T07:03:14;6.80;82.10
52787;DHT22;38661;53.152;5.846;2023-04-25T07:05:40;6.70;82.50
52787;DHT22;38661;53.152;5.846;2023-04-25T07:08:06;6.70;82.80
52787;DHT22;38661;53.152;5.846;2023-04-25T07:10:32;6.70;83.20
52787;DHT22;38661;53.152;5.846;2023-04-25T07:12:57;6.80;83.40
52787;DHT22;38661;53.152;5.846;2023-04-25T07:15:23;6.90;83.40
52787;DHT22;38661;53.152;5.846;2023-04-25T07:17:49;6.90;83.30
52787;DHT22;38661;53.152;5.846;2023-04-25T07:20:17;7.00;82.10
52787;DHT22;38661;53.152;5.846;2023-04-25T07:22:43;7.00;81.40
52787;DHT22;38661;53.152;5.846;2023-04-25T07:25:09;7.00;80.70
52787;DHT22;38661;53.152;5.846;2023-04-25T07:27:35;7.00;80.20
52787;DHT22;38661;53.152;5.846;2023-04-25T07:30:04;7.00;79.60
52787;DHT22;38661;53.152;5.846;2023-04-25T07:32:30;6.90;78.80
52787;DHT22;38661;53.152;5.846;2023-04-25T07:34:56;7.00;77.90
52787;DHT22;38661;53.152;5.846;2023-04-25T07:37:21;7.00;77.30
52787;DHT22;38661;53.152;5.846;2023-04-25T07:39:47;7.10;77.90
52787;DHT22;38661;53.152;5.846;2023-04-25T07:42:13;7.20;78.00
52787;DHT22;38661;53.152;5.846;2023-04-25T07:44:39;7.30;77.80
52787;DHT22;38661;53.152;5.846;2023-04-25T07:47:09;7.50;77.90
52787;DHT22;38661;53.152;5.846;2023-04-25T07:49:38;7.60;77.90
52787;DHT22;38661;53.152;5.846;2023-04-25T07:52:04;7.80;77.70
52787;DHT22;38661;53.152;5.846;2023-04-25T07:54:33;7.90;76.60
52787;DHT22;38661;53.152;5.846;2023-04-25T07:56:59;8.00;76.40
52787;DHT22;38661;53.152;5.846;2023-04-25T07:59:25;8.10;76.30
52787;DHT22;38661;53.152;5.846;2023-04-25T08:01:50;8.30;75.40
52787;DHT22;38661;53.152;5.846;2023-04-25T08:04:16;8.20;75.70
52787;DHT22;38661;53.152;5.846;2023-04-25T08:06:42;8.30;75.90
52787;DHT22;38661;53.152;5.846;2023-04-25T08:09:09;8.10;74.80
52787;DHT22;38661;53.152;5.846;2023-04-25T08:11:35;8.10;75.20
52787;DHT22;38661;53.152;5.846;2023-04-25T08:14:01;8.00;74.90
52787;DHT22;38661;53.152;5.846;2023-04-25T08:16:27;8.00;74.10
52787;DHT22;38661;53.152;5.846;2023-04-25T08:18:53;7.90;74.70
52787;DHT22;38661;53.152;5.846;2023-04-25T08:21:20;8.00;75.10
52787;DHT22;38661;53.152;5.846;2023-04-25T08:23:45;8.10;74.50
52787;DHT22;38661;53.152;5.846;2023-04-25T08:26:11;8.20;72.60
52787;DHT22;38661;53.152;5.846;2023-04-25T08:28:37;8.30;71.90
52787;DHT22;38661;53.152;5.846;2023-04-25T08:31:03;8.40;71.50
52787;DHT22;38661;53.152;5.846;2023-04-25T08:33:29;8.50;71.20
52787;DHT22;38661;53.152;5.846;2023-04-25T08:35:55;8.70;71.60
52787;DHT22;38661;53.152;5.846;2023-04-25T08:38:21;8.90;71.20
52787;DHT22;38661;53.152;5.846;2023-04-25T08:40:49;8.90;71.00
52787;DHT22;38661;53.152;5.846;2023-04-25T08:43:18;8.80;70.00
52787;DHT22;38661;53.152;5.846;2023-04-25T08:45:45;8.80;69.90
52787;DHT22;38661;53.152;5.846;2023-04-25T08:48:15;8.60;71.90
52787;DHT22;38661;53.152;5.846;2023-04-25T08:50:50;8.50;72.90
52787;DHT22;38661;53.152;5.846;2023-04-25T08:53:17;8.40;72.30
52787;DHT22;38661;53.152;5.846;2023-04-25T08:55:46;8.40;70.90
52787;DHT22;38661;53.152;5.846;2023-04-25T08:58:13;8.50;69.50
52787;DHT22;38661;53.152;5.846;2023-04-25T09:00:39;8.60;70.10
52787;DHT22;38661;53.152;5.846;2023-04-25T09:03:05;8.80;69.50
52787;DHT22;38661;53.152;5.846;2023-04-25T09:05:32;8.90;68.70
52787;DHT22;38661;53.152;5.846;2023-04-25T09:07:58;9.00;68.20
52787;DHT22;38661;53.152;5.846;2023-04-25T09:10:26;9.10;68.20
52787;DHT22;38661;53.152;5.846;2023-04-25T09:13:25;9.30;67.90
52787;DHT22;38661;53.152;5.846;2023-04-25T09:15:54;9.50;67.50
52787;DHT22;38661;53.152;5.846;2023-04-25T09:18:23;9.60;67.10
52787;DHT22;38661;53.152;5.846;2023-04-25T09:21:06;9.60;67.60
52787;DHT22;38661;53.152;5.846;2023-04-25T09:23:40;9.40;67.10
52787;DHT22;38661;53.152;5.846;2023-04-25T09:26:07;9.10;67.90
52787;DHT22;38661;53.152;5.846;2023-04-25T09:28:33;8.90;69.50
52787;DHT22;38661;53.152;5.846;2023-04-25T09:31:00;8.50;70.80
52787;DHT22;38661;53.152;5.846;2023-04-25T09:33:33;8.20;71.50
52787;DHT22;38661;53.152;5.846;2023-04-25T09:36:04;8.10;72.70
52787;DHT22;38661;53.152;5.846;2023-04-25T09:38:32;7.90;72.80
52787;DHT22;38661;53.152;5.846;2023-04-25T09:40:59;8.10;70.80
52787;DHT22;38661;53.152;5.846;2023-04-25T09:43:26;8.10;70.30
52787;DHT22;38661;53.152;5.846;2023-04-25T09:45:54;8.10;69.90
52787;DHT22;38661;53.152;5.846;2023-04-25T09:48:24;8.10;71.50
52787;DHT22;38661;53.152;5.846;2023-04-25T09:51:09;8.10;70.90
52787;DHT22;38661;53.152;5.846;2023-04-25T09:53:40;8.10;71.90
52787;DHT22;38661;53.152;5.846;2023-04-25T09:56:08;8.20;72.40
52787;DHT22;38661;53.152;5.846;2023-04-25T09:58:36;8.40;72.70
52787;DHT22;38661;53.152;5.846;2023-04-25T10:01:04;8.50;73.00
52787;DHT22;38661;53.152;5.846;2023-04-25T10:03:32;8.60;72.70
52787;DHT22;38661;53.152;5.846;2023-04-25T10:06:04;8.70;72.30
52787;DHT22;38661;53.152;5.846;2023-04-25T10:08:34;8.80;70.40
52787;DHT22;38661;53.152;5.846;2023-04-25T10:11:06;8.80;70.50
52787;DHT22;38661;53.152;5.846;2023-04-25T10:13:33;9.00;69.70
52787;DHT22;38661;53.152;5.846;2023-04-25T10:16:01;9.10;70.50
52787;DHT22;38661;53.152;5.846;2023-04-25T10:18:27;9.10;68.20
52787;DHT22;38661;53.152;5.846;2023-04-25T10:20:54;9.00;68.60
52787;DHT22;38661;53.152;5.846;2023-04-25T10:23:21;9.20;68.50
52787;DHT22;38661;53.152;5.846;2023-04-25T10:25:47;9.30;67.50
52787;DHT22;38661;53.152;5.846;2023-04-25T10:28:14;9.40;65.50
52787;DHT22;38661;53.152;5.846;2023-04-25T10:31:03;9.50;64.10
52787;DHT22;38661;53.152;5.846;2023-04-25T10:33:40;9.70;63.60
52787;DHT22;38661;53.152;5.846;2023-04-25T10:36:18;9.80;65.20
52787;DHT22;38661;53.152;5.846;2023-04-25T10:38:47;10.00;62.70
52787;DHT22;38661;53.152;5.846;2023-04-25T10:41:14;10.20;61.30
52787;DHT22;38661;53.152;5.846;2023-04-25T10:43:40;10.20;65.20
52787;DHT22;38661;53.152;5.846;2023-04-25T10:46:22;10.00;64.30
52787;DHT22;38661;53.152;5.846;2023-04-25T10:48:57;9.50;67.80
52787;DHT22;38661;53.152;5.846;2023-04-25T10:51:27;8.90;68.80
52787;DHT22;38661;53.152;5.846;2023-04-25T10:54:03;8.40;72.90
52787;DHT22;38661;53.152;5.846;2023-04-25T10:56:35;8.00;74.60
52787;DHT22;38661;53.152;5.846;2023-04-25T11:01:43;7.80;76.40
52787;DHT22;38661;53.152;5.846;2023-04-25T11:04:31;8.00;77.10
52787;DHT22;38661;53.152;5.846;2023-04-25T11:09:33;8.50;73.80
52787;DHT22;38661;53.152;5.846;2023-04-25T11:11:59;8.80;72.00
52787;DHT22;38661;53.152;5.846;2023-04-25T11:14:26;9.00;70.10
52787;DHT22;38661;53.152;5.846;2023-04-25T11:16:59;9.10;70.00
52787;DHT22;38661;53.152;5.846;2023-04-25T11:19:26;9.30;70.80
52787;DHT22;38661;53.152;5.846;2023-04-25T11:21:56;9.50;68.30
52787;DHT22;38661;53.152;5.846;2023-04-25T11:24:40;9.70;68.10
52787;DHT22;38661;53.152;5.846;2023-04-25T11:27:06;10.00;69.10
52787;DHT22;38661;53.152;5.846;2023-04-25T11:29:33;10.10;67.10
52787;DHT22;38661;53.152;5.846;2023-04-25T11:32:00;10.10;67.60
52787;DHT22;38661;53.152;5.846;2023-04-25T11:34:27;10.00;67.80
52787;DHT22;38661;53.152;5.846;2023-04-25T11:36:56;10.00;68.30
52787;DHT22;38661;53.152;5.846;2023-04-25T11:39:24;9.90;68.30
52787;DHT22;38661;53.152;5.846;2023-04-25T11:41:50;9.80;69.70
52787;DHT22;38661;53.152;5.846;2023-04-25T11:44:17;9.60;68.50
52787;DHT22;38661;53.152;5.846;2023-04-25T11:46:44;9.60;69.00
52787;DHT22;38661;53.152;5.846;2023-04-25T11:49:09;9.50;69.30
52787;DHT22;38661;53.152;5.846;2023-04-25T11:51:39;9.50;70.50
52787;DHT22;38661;53.152;5.846;2023-04-25T11:54:06;9.50;70.40
52787;DHT22;38661;53.152;5.846;2023-04-25T11:56:32;9.50;70.40
52787;DHT22;38661;53.152;5.846;2023-04-25T11:59:04;9.90;70.40
52787;DHT22;38661;53.152;5.846;2023-04-25T12:01:38;10.00;70.00
52787;DHT22;38661;53.152;5.846;2023-04-25T12:04:18;10.10;69.40
52787;DHT22;38661;53.152;5.846;2023-04-25T12:06:48;10.30;69.10
52787;DHT22;38661;53.152;5.846;2023-04-25T12:09:16;10.50;64.90
52787;DHT22;38661;53.152;5.846;2023-04-25T12:11:48;10.50;63.40
52787;DHT22;38661;53.152;5.846;2023-04-25T12:16:52;10.00;61.40
52787;DHT22;38661;53.152;5.846;2023-04-25T12:19:21;9.90;60.10
52787;DHT22;38661;53.152;5.846;2023-04-25T12:21:47;9.60;61.30
52787;DHT22;38661;53.152;5.846;2023-04-25T12:24:16;9.70;61.90
52787;DHT22;38661;53.152;5.846;2023-04-25T12:26:49;9.90;61.30
52787;DHT22;38661;53.152;5.846;2023-04-25T12:29:23;10.00;58.10
52787;DHT22;38661;53.152;5.846;2023-04-25T12:31:51;10.20;57.10
52787;DHT22;38661;53.152;5.846;2023-04-25T12:34:18;10.50;56.90
52787;DHT22;38661;53.152;5.846;2023-04-25T12:36:43;10.60;55.30
52787;DHT22;38661;53.152;5.846;2023-04-25T12:39:20;10.70;57.30
52787;DHT22;38661;53.152;5.846;2023-04-25T12:41:50;11.00;57.80
52787;DHT22;38661;53.152;5.846;2023-04-25T12:44:17;11.20;56.10
52787;DHT22;38661;53.152;5.846;2023-04-25T12:46:43;11.10;58.20
52787;DHT22;38661;53.152;5.846;2023-04-25T12:49:09;11.20;59.50
52787;DHT22;38661;53.152;5.846;2023-04-25T12:51:36;11.30;57.00
52787;DHT22;38661;53.152;5.846;2023-04-25T12:54:04;11.10;55.60
52787;DHT22;38661;53.152;5.846;2023-04-25T12:56:31;11.10;59.30
52787;DHT22;38661;53.152;5.846;2023-04-25T12:58:57;11.10;57.90
52787;DHT22;38661;53.152;5.846;2023-04-25T13:01:23;11.00;55.10
52787;DHT22;38661;53.152;5.846;2023-04-25T13:03:49;10.80;55.70
52787;DHT22;38661;53.152;5.846;2023-04-25T13:06:16;10.80;57.20
52787;DHT22;38661;53.152;5.846;2023-04-25T13:08:42;10.80;59.00
52787;DHT22;38661;53.152;5.846;2023-04-25T13:11:08;10.90;58.10
52787;DHT22;38661;53.152;5.846;2023-04-25T13:13:34;10.80;59.10
52787;DHT22;38661;53.152;5.846;2023-04-25T13:16:04;10.70;60.10
52787;DHT22;38661;53.152;5.846;2023-04-25T13:18:31;10.50;61.00
52787;DHT22;38661;53.152;5.846;2023-04-25T13:20:57;10.60;60.40
52787;DHT22;38661;53.152;5.846;2023-04-25T13:23:25;10.80;60.40
52787;DHT22;38661;53.152;5.846;2023-04-25T13:25:51;11.10;57.30
52787;DHT22;38661;53.152;5.846;2023-04-25T13:28:17;11.20;54.90
52787;DHT22;38661;53.152;5.846;2023-04-25T13:30:43;11.00;54.70
52787;DHT22;38661;53.152;5.846;2023-04-25T13:33:09;11.00;54.80
52787;DHT22;38661;53.152;5.846;2023-04-25T13:35:37;11.00;56.60
52787;DHT22;38661;53.152;5.846;2023-04-25T13:38:03;11.00;56.20
52787;DHT22;38661;53.152;5.846;2023-04-25T13:40:29;11.00;57.50
52787;DHT22;38661;53.152;5.846;2023-04-25T13:42:55;11.20;53.70
52787;DHT22;38661;53.152;5.846;2023-04-25T13:45:22;11.40;53.90
52787;DHT22;38661;53.152;5.846;2023-04-25T13:47:48;11.40;51.60
52787;DHT22;38661;53.152;5.846;2023-04-25T13:50:14;11.30;54.00
52787;DHT22;38661;53.152;5.846;2023-04-25T13:52:41;11.20;54.00
52787;DHT22;38661;53.152;5.846;2023-04-25T13:55:07;11.00;54.70
52787;DHT22;38661;53.152;5.846;2023-04-25T13:57:34;11.00;56.20
52787;DHT22;38661;53.152;5.846;2023-04-25T14:00:00;10.80;58.10
52787;DHT22;38661;53.152;5.846;2023-04-25T14:02:31;10.60;61.00
52787;DHT22;38661;53.152;5.846;2023-04-25T14:04:57;10.40;61.90
52787;DHT22;38661;53.152;5.846;2023-04-25T14:07:22;10.20;62.20
52787;DHT22;38661;53.152;5.846;2023-04-25T14:09:48;9.80;62.00
52787;DHT22;38661;53.152;5.846;2023-04-25T14:12:15;9.60;64.40
52787;DHT22;38661;53.152;5.846;2023-04-25T14:14:41;9.50;65.70
52787;DHT22;38661;53.152;5.846;2023-04-25T14:17:07;9.50;67.00
52787;DHT22;38661;53.152;5.846;2023-04-25T14:19:33;9.60;68.40
52787;DHT22;38661;53.152;5.846;2023-04-25T14:21:59;9.70;68.40
52787;DHT22;38661;53.152;5.846;2023-04-25T14:24:25;9.70;67.60
52787;DHT22;38661;53.152;5.846;2023-04-25T14:26:50;9.60;68.20
52787;DHT22;38661;53.152;5.846;2023-04-25T14:29:16;9.60;67.60
52787;DHT22;38661;53.152;5.846;2023-04-25T14:31:42;9.60;67.50
52787;DHT22;38661;53.152;5.846;2023-04-25T14:34:08;9.90;67.70
52787;DHT22;38661;53.152;5.846;2023-04-25T14:36:34;10.00;66.80
52787;DHT22;38661;53.152;5.846;2023-04-25T14:38:59;10.00;66.80
52787;DHT22;38661;53.152;5.846;2023-04-25T14:41:25;9.80;66.90
52787;DHT22;38661;53.152;5.846;2023-04-25T14:43:52;9.60;66.70
52787;DHT22;38661;53.152;5.846;2023-04-25T14:46:22;9.40;66.90
52787;DHT22;38661;53.152;5.846;2023-04-25T14:48:51;9.30;66.90
52787;DHT22;38661;53.152;5.846;2023-04-25T14:51:16;9.20;66.80
52787;DHT22;38661;53.152;5.846;2023-04-25T14:53:42;9.10;66.70
52787;DHT22;38661;53.152;5.846;2023-04-25T14:56:08;9.20;65.80
52787;DHT22;38661;53.152;5.846;2023-04-25T14:58:34;9.30;64.40
52787;DHT22;38661;53.152;5.846;2023-04-25T15:01:00;9.40;64.70
52787;DHT22;38661;53.152;5.846;2023-04-25T15:03:26;9.50;64.80
52787;DHT22;38661;53.152;5.846;2023-04-25T15:05:53;9.50;65.20
52787;DHT22;38661;53.152;5.846;2023-04-25T15:08:20;9.40;66.80
52787;DHT22;38661;53.152;5.846;2023-04-25T15:10:46;9.30;68.20
52787;DHT22;38661;53.152;5.846;2023-04-25T15:13:12;9.40;68.40
52787;DHT22;38661;53.152;5.846;2023-04-25T15:15:38;9.60;68.10
52787;DHT22;38661;53.152;5.846;2023-04-25T15:18:04;10.00;67.50
52787;DHT22;38661;53.152;5.846;2023-04-25T15:20:30;10.20;63.30
52787;DHT22;38661;53.152;5.846;2023-04-25T15:22:57;10.00;60.90
52787;DHT22;38661;53.152;5.846;2023-04-25T15:25:23;9.80;62.10
52787;DHT22;38661;53.152;5.846;2023-04-25T15:27:49;9.60;63.30
52787;DHT22;38661;53.152;5.846;2023-04-25T15:30:17;9.50;64.70
52787;DHT22;38661;53.152;5.846;2023-04-25T15:32:44;9.40;65.00
52787;DHT22;38661;53.152;5.846;2023-04-25T15:35:11;9.30;64.10
52787;DHT22;38661;53.152;5.846;2023-04-25T15:37:37;9.10;65.40
52787;DHT22;38661;53.152;5.846;2023-04-25T15:40:06;9.00;66.70
52787;DHT22;38661;53.152;5.846;2023-04-25T15:42:39;9.00;67.70
52787;DHT22;38661;53.152;5.846;2023-04-25T15:45:07;9.00;68.90
52787;DHT22;38661;53.152;5.846;2023-04-25T15:47:37;9.00;68.80
52787;DHT22;38661;53.152;5.846;2023-04-25T15:50:05;8.90;69.00